Main page
METAR-TAF:

METAR-TAF

Airports :

Burnet Municipal Airport

Burnet, Texas, United States

latitude: 30-44-26N, longitude: 098-14-07W, elevation: 1286 ft

Current weather observation

The report was made 54 minutes ago, at 03:53 UTC
Calm wind
Temperature 54°F
Humidity 71%
Pressure 29.78 in. Hg
Visibility: 10 miles
Clear sky

METAR: KBMQ 150353Z AUTO 00000KT 10SM CLR 12/07 A2978 RMK AO2 SLP078 T01220067 $

Time: 22:47 (04:47 UTC)


TAF: missing

Weather observations and forecasts of more than 4000 airports (METAR and TAF reports).

The available stations are represented by yellow and red dots on the map.

Hover mouse over dot to see the name of the station.

Then click to see weather observations and forecasts.

To change the map : click on the green buttons with a black cross to zoom in, on the green button with a dash to zoom out, or on the green arrows for adjacent maps.


METAR-TAF: